Huvudsida
METAR-TAF:

METAR-TAF

Flygplatser :

Enontekis flygplats

Enontekis, Finland

latitud: 68-21-52N, longitud: 023-25-39E, höjd: 308 m

Aktuellt väderrapport

Denna rapport gjordes för 16 minuter sedan, klockan 05:50 UTC
Vind 6 kt från ost/sydost, varierande mellan ost/nordost och syd/sydost
Temperatur 11°C
Fuktighet 94%
Tryck 980 hPa
Sikt 10 km eller mer
Mulet på en höjd av 500 ft
lätta regnskurar

METAR: EFET 220550Z AUTO 11006KT 060V150 9999 -SHRA OVC005 11/10 Q0980

Tid: 09:06 (06:06 UTC)


TAF: saknas

Aktuella väderrapporter och prognoser från 4000 flygplatser (METAR- och TAF-rapporter).

De tillgängliga stationerna syns som gula och röda prickar på kartan.

För musen över prickarna för att se namnen på stationerna.

Klicka sedan för att få väderrapporter och prognoser.

För att ändra kartan: Klicka på de gröna knapparna med ett svart kors på för att zooma in; den gröna knappen med ett streck på för att zooma ut; eller på de gröna pilarna för angränsande kartor.


METAR-TAF: